sensor_id;sensor_type;location;lat;lon;timestamp;temperature;humidity
46590;DHT22;32313;48.722;9.362;2022-08-25T00:01:41;15.30;99.90
46590;DHT22;32313;48.722;9.362;2022-08-25T00:04:11;15.20;99.90
46590;DHT22;32313;48.722;9.362;2022-08-25T00:06:38;15.20;99.90
46590;DHT22;32313;48.722;9.362;2022-08-25T00:09:05;15.20;99.90
46590;DHT22;32313;48.722;9.362;2022-08-25T00:11:32;15.20;99.90
46590;DHT22;32313;48.722;9.362;2022-08-25T00:14:03;15.10;99.90
46590;DHT22;32313;48.722;9.362;2022-08-25T00:16:29;15.10;99.90
46590;DHT22;32313;48.722;9.362;2022-08-25T00:19:03;15.10;99.90
46590;DHT22;32313;48.722;9.362;2022-08-25T00:21:29;15.10;99.90
46590;DHT22;32313;48.722;9.362;2022-08-25T00:23:57;15.10;99.90
46590;DHT22;32313;48.722;9.362;2022-08-25T00:26:23;15.10;99.90
46590;DHT22;32313;48.722;9.362;2022-08-25T00:28:49;15.10;99.90
46590;DHT22;32313;48.722;9.362;2022-08-25T00:31:18;15.10;99.90
46590;DHT22;32313;48.722;9.362;2022-08-25T00:33:46;15.10;99.90
46590;DHT22;32313;48.722;9.362;2022-08-25T00:36:12;15.00;99.90
46590;DHT22;32313;48.722;9.362;2022-08-25T00:38:39;15.00;99.90
46590;DHT22;32313;48.722;9.362;2022-08-25T00:41:05;15.00;99.90
46590;DHT22;32313;48.722;9.362;2022-08-25T00:46:03;14.90;99.90
46590;DHT22;32313;48.722;9.362;2022-08-25T00:48:28;14.90;99.90
46590;DHT22;32313;48.722;9.362;2022-08-25T00:50:54;14.90;99.90
46590;DHT22;32313;48.722;9.362;2022-08-25T00:53:20;14.90;99.90
46590;DHT22;32313;48.722;9.362;2022-08-25T00:55:46;15.00;99.90
46590;DHT22;32313;48.722;9.362;2022-08-25T00:58:17;15.00;99.90
46590;DHT22;32313;48.722;9.362;2022-08-25T01:00:47;15.10;99.90
46590;DHT22;32313;48.722;9.362;2022-08-25T01:03:15;15.00;99.90
46590;DHT22;32313;48.722;9.362;2022-08-25T01:05:42;15.00;99.90
46590;DHT22;32313;48.722;9.362;2022-08-25T01:08:09;15.00;99.90
46590;DHT22;32313;48.722;9.362;2022-08-25T01:10:37;14.90;99.90
46590;DHT22;32313;48.722;9.362;2022-08-25T01:13:12;14.80;99.90
46590;DHT22;32313;48.722;9.362;2022-08-25T01:15:38;14.70;99.90
46590;DHT22;32313;48.722;9.362;2022-08-25T01:18:03;14.70;99.90
46590;DHT22;32313;48.722;9.362;2022-08-25T01:20:30;14.60;99.90
46590;DHT22;32313;48.722;9.362;2022-08-25T01:22:57;14.60;99.90
46590;DHT22;32313;48.722;9.362;2022-08-25T01:27:49;14.50;99.90
46590;DHT22;32313;48.722;9.362;2022-08-25T01:30:15;14.40;99.90
46590;DHT22;32313;48.722;9.362;2022-08-25T01:32:41;14.40;99.90
46590;DHT22;32313;48.722;9.362;2022-08-25T01:35:07;14.40;99.90
46590;DHT22;32313;48.722;9.362;2022-08-25T01:37:33;14.40;99.90
46590;DHT22;32313;48.722;9.362;2022-08-25T01:39:59;14.40;99.90
46590;DHT22;32313;48.722;9.362;2022-08-25T01:42:52;14.30;99.90
46590;DHT22;32313;48.722;9.362;2022-08-25T01:45:19;14.20;99.90
46590;DHT22;32313;48.722;9.362;2022-08-25T01:47:45;14.30;99.90
46590;DHT22;32313;48.722;9.362;2022-08-25T01:50:11;14.20;99.90
46590;DHT22;32313;48.722;9.362;2022-08-25T01:52:48;14.20;99.90
46590;DHT22;32313;48.722;9.362;2022-08-25T01:55:14;14.20;99.90
46590;DHT22;32313;48.722;9.362;2022-08-25T01:57:40;14.10;99.90
46590;DHT22;32313;48.722;9.362;2022-08-25T02:00:09;14.10;99.90
46590;DHT22;32313;48.722;9.362;2022-08-25T02:02:37;14.10;99.90
46590;DHT22;32313;48.722;9.362;2022-08-25T02:05:04;14.10;99.90
46590;DHT22;32313;48.722;9.362;2022-08-25T02:07:30;14.10;99.90
46590;DHT22;32313;48.722;9.362;2022-08-25T02:09:56;14.10;99.90
46590;DHT22;32313;48.722;9.362;2022-08-25T02:12:22;14.10;99.90
46590;DHT22;32313;48.722;9.362;2022-08-25T02:14:48;14.00;99.90
46590;DHT22;32313;48.722;9.362;2022-08-25T02:17:13;14.00;99.90
46590;DHT22;32313;48.722;9.362;2022-08-25T02:19:39;14.00;99.90
46590;DHT22;32313;48.722;9.362;2022-08-25T02:22:05;14.00;99.90
46590;DHT22;32313;48.722;9.362;2022-08-25T02:24:31;14.10;99.90
46590;DHT22;32313;48.722;9.362;2022-08-25T02:26:57;14.10;99.90
46590;DHT22;32313;48.722;9.362;2022-08-25T02:29:23;14.20;99.90
46590;DHT22;32313;48.722;9.362;2022-08-25T02:31:49;14.10;99.90
46590;DHT22;32313;48.722;9.362;2022-08-25T02:34:15;14.10;99.90
46590;DHT22;32313;48.722;9.362;2022-08-25T02:36:41;14.00;99.90
46590;DHT22;32313;48.722;9.362;2022-08-25T02:39:09;14.00;99.90
46590;DHT22;32313;48.722;9.362;2022-08-25T02:41:35;14.00;99.90
46590;DHT22;32313;48.722;9.362;2022-08-25T02:44:03;14.00;99.90
46590;DHT22;32313;48.722;9.362;2022-08-25T02:46:29;13.90;99.90
46590;DHT22;32313;48.722;9.362;2022-08-25T02:48:56;13.90;99.90
46590;DHT22;32313;48.722;9.362;2022-08-25T02:51:23;13.80;99.90
46590;DHT22;32313;48.722;9.362;2022-08-25T02:53:49;13.80;99.90
46590;DHT22;32313;48.722;9.362;2022-08-25T02:56:16;13.80;99.90
46590;DHT22;32313;48.722;9.362;2022-08-25T02:58:43;13.70;99.90
46590;DHT22;32313;48.722;9.362;2022-08-25T03:01:11;13.70;99.90
46590;DHT22;32313;48.722;9.362;2022-08-25T03:03:41;13.60;99.90
46590;DHT22;32313;48.722;9.362;2022-08-25T03:06:10;13.60;99.90
46590;DHT22;32313;48.722;9.362;2022-08-25T03:08:37;13.60;99.90
46590;DHT22;32313;48.722;9.362;2022-08-25T03:11:03;13.60;99.90
46590;DHT22;32313;48.722;9.362;2022-08-25T03:13:30;13.50;99.90
46590;DHT22;32313;48.722;9.362;2022-08-25T03:15:58;13.50;99.90
46590;DHT22;32313;48.722;9.362;2022-08-25T03:18:24;13.50;99.90
46590;DHT22;32313;48.722;9.362;2022-08-25T03:20:50;13.40;99.90
46590;DHT22;32313;48.722;9.362;2022-08-25T03:23:16;13.50;99.90
46590;DHT22;32313;48.722;9.362;2022-08-25T03:25:42;13.40;99.90
46590;DHT22;32313;48.722;9.362;2022-08-25T03:28:26;13.50;99.90
46590;DHT22;32313;48.722;9.362;2022-08-25T03:30:52;13.60;99.90
46590;DHT22;32313;48.722;9.362;2022-08-25T03:33:18;13.70;99.90
46590;DHT22;32313;48.722;9.362;2022-08-25T03:35:44;13.80;99.90
46590;DHT22;32313;48.722;9.362;2022-08-25T03:38:10;13.80;99.90
46590;DHT22;32313;48.722;9.362;2022-08-25T03:40:36;13.70;99.90
46590;DHT22;32313;48.722;9.362;2022-08-25T03:43:02;13.70;99.90
46590;DHT22;32313;48.722;9.362;2022-08-25T03:45:29;13.60;99.90
46590;DHT22;32313;48.722;9.362;2022-08-25T03:47:55;13.60;99.90
46590;DHT22;32313;48.722;9.362;2022-08-25T03:50:22;13.50;99.90
46590;DHT22;32313;48.722;9.362;2022-08-25T03:52:53;13.50;99.90
46590;DHT22;32313;48.722;9.362;2022-08-25T03:55:20;13.50;99.90
46590;DHT22;32313;48.722;9.362;2022-08-25T03:57:47;13.50;99.90
46590;DHT22;32313;48.722;9.362;2022-08-25T04:00:13;13.60;99.90
46590;DHT22;32313;48.722;9.362;2022-08-25T04:02:40;13.60;99.90
46590;DHT22;32313;48.722;9.362;2022-08-25T04:05:06;13.60;99.90
46590;DHT22;32313;48.722;9.362;2022-08-25T04:07:32;13.50;99.90
46590;DHT22;32313;48.722;9.362;2022-08-25T04:09:58;13.50;99.90
46590;DHT22;32313;48.722;9.362;2022-08-25T04:12:23;13.40;99.90
46590;DHT22;32313;48.722;9.362;2022-08-25T04:14:49;13.30;99.90
46590;DHT22;32313;48.722;9.362;2022-08-25T04:17:15;13.30;99.90
46590;DHT22;32313;48.722;9.362;2022-08-25T04:19:42;13.30;99.90
46590;DHT22;32313;48.722;9.362;2022-08-25T04:22:07;13.30;99.90
46590;DHT22;32313;48.722;9.362;2022-08-25T04:24:33;13.30;99.90
46590;DHT22;32313;48.722;9.362;2022-08-25T04:26:59;13.30;99.90
46590;DHT22;32313;48.722;9.362;2022-08-25T04:29:25;13.30;99.90
46590;DHT22;32313;48.722;9.362;2022-08-25T04:31:52;13.30;99.90
46590;DHT22;32313;48.722;9.362;2022-08-25T04:34:20;13.30;99.90
46590;DHT22;32313;48.722;9.362;2022-08-25T04:36:46;13.30;99.90
46590;DHT22;32313;48.722;9.362;2022-08-25T04:39:12;13.30;99.90
46590;DHT22;32313;48.722;9.362;2022-08-25T04:41:38;13.20;99.90
46590;DHT22;32313;48.722;9.362;2022-08-25T04:44:04;13.20;99.90
46590;DHT22;32313;48.722;9.362;2022-08-25T04:46:32;13.20;99.90
46590;DHT22;32313;48.722;9.362;2022-08-25T04:48:59;13.20;99.90
46590;DHT22;32313;48.722;9.362;2022-08-25T04:51:29;13.30;99.90
46590;DHT22;32313;48.722;9.362;2022-08-25T04:53:58;13.30;99.90
46590;DHT22;32313;48.722;9.362;2022-08-25T04:56:26;13.30;99.90
46590;DHT22;32313;48.722;9.362;2022-08-25T04:58:53;13.40;99.90
46590;DHT22;32313;48.722;9.362;2022-08-25T05:01:22;13.40;99.90
46590;DHT22;32313;48.722;9.362;2022-08-25T05:03:55;13.40;99.90
46590;DHT22;32313;48.722;9.362;2022-08-25T05:06:21;13.50;99.90
46590;DHT22;32313;48.722;9.362;2022-08-25T05:08:47;13.60;99.90
46590;DHT22;32313;48.722;9.362;2022-08-25T05:11:14;13.60;99.90
46590;DHT22;32313;48.722;9.362;2022-08-25T05:13:43;13.80;99.90
46590;DHT22;32313;48.722;9.362;2022-08-25T05:16:08;13.90;99.90
46590;DHT22;32313;48.722;9.362;2022-08-25T05:18:35;14.00;99.90
46590;DHT22;32313;48.722;9.362;2022-08-25T05:21:04;14.00;99.90
46590;DHT22;32313;48.722;9.362;2022-08-25T05:23:30;14.10;99.90
46590;DHT22;32313;48.722;9.362;2022-08-25T05:26:01;14.20;99.90
46590;DHT22;32313;48.722;9.362;2022-08-25T05:28:27;14.20;99.90
46590;DHT22;32313;48.722;9.362;2022-08-25T05:30:57;14.20;99.90
46590;DHT22;32313;48.722;9.362;2022-08-25T05:33:23;14.30;99.90
46590;DHT22;32313;48.722;9.362;2022-08-25T05:35:49;14.40;99.90
46590;DHT22;32313;48.722;9.362;2022-08-25T05:38:16;14.50;99.90
46590;DHT22;32313;48.722;9.362;2022-08-25T05:40:42;14.60;99.90
46590;DHT22;32313;48.722;9.362;2022-08-25T05:43:08;14.60;99.90
46590;DHT22;32313;48.722;9.362;2022-08-25T05:45:33;14.80;99.90
46590;DHT22;32313;48.722;9.362;2022-08-25T05:48:00;14.90;99.90
46590;DHT22;32313;48.722;9.362;2022-08-25T05:50:26;15.10;99.90
46590;DHT22;32313;48.722;9.362;2022-08-25T05:52:52;15.20;99.90
46590;DHT22;32313;48.722;9.362;2022-08-25T05:55:18;15.30;99.90
46590;DHT22;32313;48.722;9.362;2022-08-25T05:57:44;15.40;99.90
46590;DHT22;32313;48.722;9.362;2022-08-25T06:00:10;15.40;99.90
46590;DHT22;32313;48.722;9.362;2022-08-25T06:02:39;15.60;99.90
46590;DHT22;32313;48.722;9.362;2022-08-25T06:05:16;15.80;99.90
46590;DHT22;32313;48.722;9.362;2022-08-25T06:07:43;15.90;99.90
46590;DHT22;32313;48.722;9.362;2022-08-25T06:10:10;16.10;99.90
46590;DHT22;32313;48.722;9.362;2022-08-25T06:12:37;16.20;99.90
46590;DHT22;32313;48.722;9.362;2022-08-25T06:15:04;16.40;99.90
46590;DHT22;32313;48.722;9.362;2022-08-25T06:17:30;16.50;99.90
46590;DHT22;32313;48.722;9.362;2022-08-25T06:19:56;16.70;99.90
46590;DHT22;32313;48.722;9.362;2022-08-25T06:22:21;16.90;99.90
46590;DHT22;32313;48.722;9.362;2022-08-25T06:24:47;17.00;99.90
46590;DHT22;32313;48.722;9.362;2022-08-25T06:27:13;17.10;99.90
46590;DHT22;32313;48.722;9.362;2022-08-25T06:29:39;17.30;99.90
46590;DHT22;32313;48.722;9.362;2022-08-25T06:32:05;17.50;99.90
46590;DHT22;32313;48.722;9.362;2022-08-25T06:34:31;17.50;99.90
46590;DHT22;32313;48.722;9.362;2022-08-25T06:36:57;17.70;99.90
46590;DHT22;32313;48.722;9.362;2022-08-25T06:39:23;17.80;99.90
46590;DHT22;32313;48.722;9.362;2022-08-25T06:41:53;18.10;99.90
46590;DHT22;32313;48.722;9.362;2022-08-25T06:44:20;18.30;99.90
46590;DHT22;32313;48.722;9.362;2022-08-25T06:46:46;18.70;99.90
46590;DHT22;32313;48.722;9.362;2022-08-25T06:49:12;19.20;99.90
46590;DHT22;32313;48.722;9.362;2022-08-25T06:51:38;20.00;99.90
46590;DHT22;32313;48.722;9.362;2022-08-25T06:54:08;20.80;99.90
46590;DHT22;32313;48.722;9.362;2022-08-25T06:56:35;21.60;99.90
46590;DHT22;32313;48.722;9.362;2022-08-25T06:59:03;22.30;99.90
46590;DHT22;32313;48.722;9.362;2022-08-25T07:01:29;22.80;99.90
46590;DHT22;32313;48.722;9.362;2022-08-25T07:03:59;23.00;99.90
46590;DHT22;32313;48.722;9.362;2022-08-25T07:06:27;23.50;99.90
46590;DHT22;32313;48.722;9.362;2022-08-25T07:08:53;24.00;99.90
46590;DHT22;32313;48.722;9.362;2022-08-25T07:11:20;24.60;99.90
46590;DHT22;32313;48.722;9.362;2022-08-25T07:13:46;24.90;99.90
46590;DHT22;32313;48.722;9.362;2022-08-25T07:16:12;25.20;99.90
46590;DHT22;32313;48.722;9.362;2022-08-25T07:18:39;25.40;99.90
46590;DHT22;32313;48.722;9.362;2022-08-25T07:21:06;25.50;99.90
46590;DHT22;32313;48.722;9.362;2022-08-25T07:23:32;25.70;99.90
46590;DHT22;32313;48.722;9.362;2022-08-25T07:26:10;25.80;99.90
46590;DHT22;32313;48.722;9.362;2022-08-25T07:28:37;26.20;99.90
46590;DHT22;32313;48.722;9.362;2022-08-25T07:31:04;26.40;99.90
46590;DHT22;32313;48.722;9.362;2022-08-25T07:33:29;26.60;99.90
46590;DHT22;32313;48.722;9.362;2022-08-25T07:35:55;26.60;99.90
46590;DHT22;32313;48.722;9.362;2022-08-25T07:38:22;26.70;99.90
46590;DHT22;32313;48.722;9.362;2022-08-25T07:40:48;26.80;99.90
46590;DHT22;32313;48.722;9.362;2022-08-25T07:43:20;27.10;99.90
46590;DHT22;32313;48.722;9.362;2022-08-25T07:45:47;27.30;99.90
46590;DHT22;32313;48.722;9.362;2022-08-25T07:48:14;27.60;99.90
46590;DHT22;32313;48.722;9.362;2022-08-25T07:50:44;27.50;99.90
46590;DHT22;32313;48.722;9.362;2022-08-25T07:53:12;27.60;99.90
46590;DHT22;32313;48.722;9.362;2022-08-25T07:55:38;27.60;99.90
46590;DHT22;32313;48.722;9.362;2022-08-25T07:58:07;27.50;99.90
46590;DHT22;32313;48.722;9.362;2022-08-25T08:00:34;27.70;99.90
46590;DHT22;32313;48.722;9.362;2022-08-25T08:03:03;27.60;99.90
46590;DHT22;32313;48.722;9.362;2022-08-25T08:05:29;27.70;99.90
46590;DHT22;32313;48.722;9.362;2022-08-25T08:07:55;27.90;99.90
46590;DHT22;32313;48.722;9.362;2022-08-25T08:10:22;28.10;99.90
46590;DHT22;32313;48.722;9.362;2022-08-25T08:12:48;28.10;99.90
46590;DHT22;32313;48.722;9.362;2022-08-25T08:15:14;28.30;99.90
46590;DHT22;32313;48.722;9.362;2022-08-25T08:17:40;28.50;99.90
46590;DHT22;32313;48.722;9.362;2022-08-25T08:20:08;28.80;99.90
46590;DHT22;32313;48.722;9.362;2022-08-25T08:22:36;29.10;99.90
46590;DHT22;32313;48.722;9.362;2022-08-25T08:25:03;29.20;99.90
46590;DHT22;32313;48.722;9.362;2022-08-25T08:27:29;29.70;99.90
46590;DHT22;32313;48.722;9.362;2022-08-25T08:29:55;30.00;99.90
46590;DHT22;32313;48.722;9.362;2022-08-25T08:32:21;29.80;99.90
46590;DHT22;32313;48.722;9.362;2022-08-25T08:34:47;29.30;99.90
46590;DHT22;32313;48.722;9.362;2022-08-25T08:37:14;29.30;99.90
46590;DHT22;32313;48.722;9.362;2022-08-25T08:39:40;29.60;99.90
46590;DHT22;32313;48.722;9.362;2022-08-25T08:45:27;30.40;99.90
46590;DHT22;32313;48.722;9.362;2022-08-25T08:53:30;29.90;99.90
46590;DHT22;32313;48.722;9.362;2022-08-25T08:55:59;30.30;99.90
46590;DHT22;32313;48.722;9.362;2022-08-25T08:58:49;30.40;99.90
46590;DHT22;32313;48.722;9.362;2022-08-25T09:01:48;30.70;99.90
46590;DHT22;32313;48.722;9.362;2022-08-25T09:04:26;30.60;99.50
46590;DHT22;32313;48.722;9.362;2022-08-25T09:06:54;30.40;98.30
46590;DHT22;32313;48.722;9.362;2022-08-25T09:09:28;30.50;98.90
46590;DHT22;32313;48.722;9.362;2022-08-25T09:12:12;30.50;98.00
46590;DHT22;32313;48.722;9.362;2022-08-25T09:15:11;30.40;97.10
46590;DHT22;32313;48.722;9.362;2022-08-25T09:18:03;30.80;98.00
46590;DHT22;32313;48.722;9.362;2022-08-25T09:29:41;31.10;94.90
46590;DHT22;32313;48.722;9.362;2022-08-25T09:31:41;31.00;94.90
46590;DHT22;32313;48.722;9.362;2022-08-25T09:34:21;31.10;94.50
46590;DHT22;32313;48.722;9.362;2022-08-25T09:36:48;31.20;94.30
46590;DHT22;32313;48.722;9.362;2022-08-25T09:39:17;31.20;92.40
46590;DHT22;32313;48.722;9.362;2022-08-25T09:41:55;31.20;92.40
46590;DHT22;32313;48.722;9.362;2022-08-25T09:44:25;31.30;91.60
46590;DHT22;32313;48.722;9.362;2022-08-25T09:47:04;31.40;91.90
46590;DHT22;32313;48.722;9.362;2022-08-25T09:49:39;31.50;92.10
46590;DHT22;32313;48.722;9.362;2022-08-25T09:54:54;32.10;91.20
46590;DHT22;32313;48.722;9.362;2022-08-25T09:57:46;32.30;88.30
46590;DHT22;32313;48.722;9.362;2022-08-25T10:00:23;32.50;87.80
46590;DHT22;32313;48.722;9.362;2022-08-25T10:03:04;32.80;87.60
46590;DHT22;32313;48.722;9.362;2022-08-25T10:05:30;32.90;85.10
46590;DHT22;32313;48.722;9.362;2022-08-25T10:08:21;33.10;84.80
46590;DHT22;32313;48.722;9.362;2022-08-25T10:10:54;33.30;81.00
46590;DHT22;32313;48.722;9.362;2022-08-25T10:13:38;33.40;82.10
46590;DHT22;32313;48.722;9.362;2022-08-25T10:16:20;33.60;80.30
46590;DHT22;32313;48.722;9.362;2022-08-25T10:19:13;33.30;80.10
46590;DHT22;32313;48.722;9.362;2022-08-25T10:21:41;33.50;82.20
46590;DHT22;32313;48.722;9.362;2022-08-25T10:24:09;33.30;81.30
46590;DHT22;32313;48.722;9.362;2022-08-25T10:29:44;33.50;82.00
46590;DHT22;32313;48.722;9.362;2022-08-25T10:35:22;34.20;78.20
46590;DHT22;32313;48.722;9.362;2022-08-25T10:40:49;34.50;74.60
46590;DHT22;32313;48.722;9.362;2022-08-25T10:48:41;34.20;73.70
46590;DHT22;32313;48.722;9.362;2022-08-25T10:59:36;34.60;71.60
46590;DHT22;32313;48.722;9.362;2022-08-25T11:05:10;34.30;69.90
46590;DHT22;32313;48.722;9.362;2022-08-25T11:07:41;34.50;69.80
46590;DHT22;32313;48.722;9.362;2022-08-25T11:10:35;34.70;68.00
46590;DHT22;32313;48.722;9.362;2022-08-25T11:13:08;35.40;70.00
46590;DHT22;32313;48.722;9.362;2022-08-25T11:15:49;35.80;65.40
46590;DHT22;32313;48.722;9.362;2022-08-25T11:18:15;35.40;65.60
46590;DHT22;32313;48.722;9.362;2022-08-25T11:20:51;35.30;64.90
46590;DHT22;32313;48.722;9.362;2022-08-25T11:23:38;35.10;66.70
46590;DHT22;32313;48.722;9.362;2022-08-25T11:26:14;35.60;66.70
46590;DHT22;32313;48.722;9.362;2022-08-25T11:29:04;36.00;65.50
46590;DHT22;32313;48.722;9.362;2022-08-25T11:31:37;35.80;61.30
46590;DHT22;32313;48.722;9.362;2022-08-25T11:34:05;34.80;64.10
46590;DHT22;32313;48.722;9.362;2022-08-25T11:36:37;35.20;64.40
46590;DHT22;32313;48.722;9.362;2022-08-25T11:39:15;35.80;64.70
46590;DHT22;32313;48.722;9.362;2022-08-25T11:49:52;35.80;63.00
46590;DHT22;32313;48.722;9.362;2022-08-25T11:57:50;36.20;62.20
46590;DHT22;32313;48.722;9.362;2022-08-25T12:00:55;36.70;61.00
46590;DHT22;32313;48.722;9.362;2022-08-25T12:19:46;38.10;57.10
46590;DHT22;32313;48.722;9.362;2022-08-25T12:29:45;37.50;55.70
46590;DHT22;32313;48.722;9.362;2022-08-25T12:32:49;37.50;54.30
46590;DHT22;32313;48.722;9.362;2022-08-25T12:35:23;37.60;56.10
46590;DHT22;32313;48.722;9.362;2022-08-25T12:37:54;37.90;56.90
46590;DHT22;32313;48.722;9.362;2022-08-25T12:45:44;37.80;54.40
46590;DHT22;32313;48.722;9.362;2022-08-25T12:51:14;37.40;56.30
46590;DHT22;32313;48.722;9.362;2022-08-25T12:53:41;37.40;53.80
46590;DHT22;32313;48.722;9.362;2022-08-25T12:56:31;37.50;54.80
46590;DHT22;32313;48.722;9.362;2022-08-25T12:59:21;37.70;53.20
46590;DHT22;32313;48.722;9.362;2022-08-25T13:02:20;37.30;55.20
46590;DHT22;32313;48.722;9.362;2022-08-25T13:11:10;38.50;53.30
46590;DHT22;32313;48.722;9.362;2022-08-25T13:16:33;38.40;51.00
46590;DHT22;32313;48.722;9.362;2022-08-25T13:19:04;38.20;51.80
46590;DHT22;32313;48.722;9.362;2022-08-25T13:21:40;37.10;52.70
46590;DHT22;32313;48.722;9.362;2022-08-25T13:24:29;36.90;55.10
46590;DHT22;32313;48.722;9.362;2022-08-25T13:27:03;36.10;54.80
46590;DHT22;32313;48.722;9.362;2022-08-25T13:29:31;34.50;56.90
46590;DHT22;32313;48.722;9.362;2022-08-25T13:32:00;33.80;57.90
46590;DHT22;32313;48.722;9.362;2022-08-25T13:34:29;34.00;57.10
46590;DHT22;32313;48.722;9.362;2022-08-25T13:36:56;34.20;57.30
46590;DHT22;32313;48.722;9.362;2022-08-25T13:42:51;35.30;55.70
46590;DHT22;32313;48.722;9.362;2022-08-25T13:45:26;36.10;55.10
46590;DHT22;32313;48.722;9.362;2022-08-25T13:47:52;36.60;54.10
46590;DHT22;32313;48.722;9.362;2022-08-25T13:53:06;36.20;54.40
46590;DHT22;32313;48.722;9.362;2022-08-25T13:58:02;35.20;56.40
46590;DHT22;32313;48.722;9.362;2022-08-25T14:03:34;35.90;56.40
46590;DHT22;32313;48.722;9.362;2022-08-25T14:11:54;37.40;52.80
46590;DHT22;32313;48.722;9.362;2022-08-25T14:16:51;37.60;50.00
46590;DHT22;32313;48.722;9.362;2022-08-25T14:19:20;36.50;52.60
46590;DHT22;32313;48.722;9.362;2022-08-25T14:21:47;36.00;53.20
46590;DHT22;32313;48.722;9.362;2022-08-25T14:24:18;35.70;53.20
46590;DHT22;32313;48.722;9.362;2022-08-25T14:26:46;34.70;54.20
46590;DHT22;32313;48.722;9.362;2022-08-25T14:29:13;34.20;56.50
46590;DHT22;32313;48.722;9.362;2022-08-25T14:31:41;34.50;56.00
46590;DHT22;32313;48.722;9.362;2022-08-25T14:34:17;34.90;53.80
46590;DHT22;32313;48.722;9.362;2022-08-25T14:36:44;35.50;53.70
46590;DHT22;32313;48.722;9.362;2022-08-25T14:39:10;36.20;54.50
46590;DHT22;32313;48.722;9.362;2022-08-25T14:41:39;36.60;53.30
46590;DHT22;32313;48.722;9.362;2022-08-25T14:44:06;36.80;53.10
46590;DHT22;32313;48.722;9.362;2022-08-25T14:46:39;36.80;52.10
46590;DHT22;32313;48.722;9.362;2022-08-25T14:49:09;36.90;52.20
46590;DHT22;32313;48.722;9.362;2022-08-25T14:51:39;37.10;51.90
46590;DHT22;32313;48.722;9.362;2022-08-25T14:54:12;37.30;51.00
46590;DHT22;32313;48.722;9.362;2022-08-25T14:56:39;37.00;49.30
46590;DHT22;32313;48.722;9.362;2022-08-25T14:59:05;37.00;50.10
46590;DHT22;32313;48.722;9.362;2022-08-25T15:01:32;37.00;52.00
46590;DHT22;32313;48.722;9.362;2022-08-25T15:04:08;37.20;48.90
46590;DHT22;32313;48.722;9.362;2022-08-25T15:06:35;36.70;50.90
46590;DHT22;32313;48.722;9.362;2022-08-25T15:09:03;36.60;51.20
46590;DHT22;32313;48.722;9.362;2022-08-25T15:11:33;36.90;50.80
46590;DHT22;32313;48.722;9.362;2022-08-25T15:13:59;37.10;50.40
46590;DHT22;32313;48.722;9.362;2022-08-25T15:16:32;37.10;51.40
46590;DHT22;32313;48.722;9.362;2022-08-25T15:18:59;37.00;50.30
46590;DHT22;32313;48.722;9.362;2022-08-25T15:21:25;36.70;51.20
46590;DHT22;32313;48.722;9.362;2022-08-25T15:23:51;36.20;51.40
46590;DHT22;32313;48.722;9.362;2022-08-25T15:26:17;36.10;52.50
46590;DHT22;32313;48.722;9.362;2022-08-25T15:28:46;36.20;52.50
46590;DHT22;32313;48.722;9.362;2022-08-25T15:31:14;36.30;51.90
46590;DHT22;32313;48.722;9.362;2022-08-25T15:33:40;36.20;52.20
46590;DHT22;32313;48.722;9.362;2022-08-25T15:36:08;36.30;51.80
46590;DHT22;32313;48.722;9.362;2022-08-25T15:38:37;36.20;53.10
46590;DHT22;32313;48.722;9.362;2022-08-25T15:41:03;35.30;53.00
46590;DHT22;32313;48.722;9.362;2022-08-25T15:43:29;33.90;55.00
46590;DHT22;32313;48.722;9.362;2022-08-25T15:45:56;33.00;56.40
46590;DHT22;32313;48.722;9.362;2022-08-25T15:48:22;32.10;58.30
46590;DHT22;32313;48.722;9.362;2022-08-25T15:50:52;31.60;60.00
46590;DHT22;32313;48.722;9.362;2022-08-25T15:53:20;31.30;60.90
46590;DHT22;32313;48.722;9.362;2022-08-25T15:55:47;32.00;60.40
46590;DHT22;32313;48.722;9.362;2022-08-25T15:58:13;32.80;59.80
46590;DHT22;32313;48.722;9.362;2022-08-25T16:00:39;33.40;56.80
46590;DHT22;32313;48.722;9.362;2022-08-25T16:03:05;33.70;55.90
46590;DHT22;32313;48.722;9.362;2022-08-25T16:05:37;33.90;56.30
46590;DHT22;32313;48.722;9.362;2022-08-25T16:08:04;34.10;55.30
46590;DHT22;32313;48.722;9.362;2022-08-25T16:10:34;34.10;56.00
46590;DHT22;32313;48.722;9.362;2022-08-25T16:13:01;34.20;56.80
46590;DHT22;32313;48.722;9.362;2022-08-25T16:15:27;34.30;56.60
46590;DHT22;32313;48.722;9.362;2022-08-25T16:17:53;34.20;56.00
46590;DHT22;32313;48.722;9.362;2022-08-25T16:20:19;34.10;56.80
46590;DHT22;32313;48.722;9.362;2022-08-25T16:22:46;33.90;56.30
46590;DHT22;32313;48.722;9.362;2022-08-25T16:25:13;33.80;56.50
46590;DHT22;32313;48.722;9.362;2022-08-25T16:27:39;33.80;57.00
46590;DHT22;32313;48.722;9.362;2022-08-25T16:30:06;33.80;56.30
46590;DHT22;32313;48.722;9.362;2022-08-25T16:32:33;33.60;56.60
46590;DHT22;32313;48.722;9.362;2022-08-25T16:34:58;33.70;57.60
46590;DHT22;32313;48.722;9.362;2022-08-25T16:37:24;33.70;57.00
46590;DHT22;32313;48.722;9.362;2022-08-25T16:39:54;33.40;56.60
46590;DHT22;32313;48.722;9.362;2022-08-25T16:42:19;32.80;58.20
46590;DHT22;32313;48.722;9.362;2022-08-25T16:44:45;32.70;58.10
46590;DHT22;32313;48.722;9.362;2022-08-25T16:47:11;32.80;58.30
46590;DHT22;32313;48.722;9.362;2022-08-25T16:49:39;32.70;59.40
46590;DHT22;32313;48.722;9.362;2022-08-25T16:52:06;32.20;59.10
46590;DHT22;32313;48.722;9.362;2022-08-25T16:54:52;31.40;60.60
46590;DHT22;32313;48.722;9.362;2022-08-25T16:57:38;30.80;62.00
46590;DHT22;32313;48.722;9.362;2022-08-25T17:00:08;30.30;63.40
46590;DHT22;32313;48.722;9.362;2022-08-25T17:02:38;29.80;64.50
46590;DHT22;32313;48.722;9.362;2022-08-25T17:05:05;29.40;65.10
46590;DHT22;32313;48.722;9.362;2022-08-25T17:07:32;29.10;66.40
46590;DHT22;32313;48.722;9.362;2022-08-25T17:09:57;28.90;67.30
46590;DHT22;32313;48.722;9.362;2022-08-25T17:12:24;28.70;67.50
46590;DHT22;32313;48.722;9.362;2022-08-25T17:14:50;28.40;67.80
46590;DHT22;32313;48.722;9.362;2022-08-25T17:17:17;28.20;68.10
46590;DHT22;32313;48.722;9.362;2022-08-25T17:19:42;28.10;68.50
46590;DHT22;32313;48.722;9.362;2022-08-25T17:22:09;28.00;69.60
46590;DHT22;32313;48.722;9.362;2022-08-25T17:24:39;27.90;69.80
46590;DHT22;32313;48.722;9.362;2022-08-25T17:27:05;27.80;70.10
46590;DHT22;32313;48.722;9.362;2022-08-25T17:29:31;27.70;70.70
46590;DHT22;32313;48.722;9.362;2022-08-25T17:31:59;27.50;71.00
46590;DHT22;32313;48.722;9.362;2022-08-25T17:34:24;27.50;71.90
46590;DHT22;32313;48.722;9.362;2022-08-25T17:36:51;27.30;72.40
46590;DHT22;32313;48.722;9.362;2022-08-25T17:39:18;27.20;74.10
46590;DHT22;32313;48.722;9.362;2022-08-25T17:41:44;27.00;75.20
46590;DHT22;32313;48.722;9.362;2022-08-25T17:44:11;26.70;75.90
46590;DHT22;32313;48.722;9.362;2022-08-25T17:46:37;26.50;76.90
46590;DHT22;32313;48.722;9.362;2022-08-25T17:49:03;26.40;77.30